sensor_id;sensor_type;location;lat;lon;timestamp;temperature;humidity
75113;DHT22;63692;47.338;8.520;2023-02-28T05:31:46;0.50;91.50
75113;DHT22;63692;47.338;8.520;2023-02-28T05:34:12;0.50;91.50
75113;DHT22;63692;47.338;8.520;2023-02-28T05:36:38;0.50;91.60
75113;DHT22;63692;47.338;8.520;2023-02-28T05:39:06;0.50;91.50
75113;DHT22;63692;47.338;8.520;2023-02-28T05:41:32;0.50;91.40
75113;DHT22;63692;47.338;8.520;2023-02-28T05:43:59;0.50;91.30
75113;DHT22;63692;47.338;8.520;2023-02-28T05:46:25;0.50;91.40
75113;DHT22;63692;47.338;8.520;2023-02-28T05:48:51;0.50;91.40
75113;DHT22;63692;47.338;8.520;2023-02-28T05:51:17;0.50;91.40
75113;DHT22;63692;47.338;8.520;2023-02-28T06:05:59;0.50;91.70
75113;DHT22;63692;47.338;8.520;2023-02-28T06:08:29;0.50;91.80
75113;DHT22;63692;47.338;8.520;2023-02-28T06:14:16;0.50;91.50
75113;DHT22;63692;47.338;8.520;2023-02-28T06:17:03;0.50;91.50
75113;DHT22;63692;47.338;8.520;2023-02-28T06:19:29;0.50;91.40
75113;DHT22;63692;47.338;8.520;2023-02-28T06:21:56;0.50;91.50
75113;DHT22;63692;47.338;8.520;2023-02-28T06:24:30;0.50;91.40
75113;DHT22;63692;47.338;8.520;2023-02-28T06:26:56;0.50;91.50
75113;DHT22;63692;47.338;8.520;2023-02-28T06:34:26;0.60;91.40
75113;DHT22;63692;47.338;8.520;2023-02-28T06:36:52;0.50;91.30
75113;DHT22;63692;47.338;8.520;2023-02-28T06:39:18;0.60;91.20
75113;DHT22;63692;47.338;8.520;2023-02-28T06:41:44;0.60;91.20
75113;DHT22;63692;47.338;8.520;2023-02-28T06:44:12;0.50;91.10
75113;DHT22;63692;47.338;8.520;2023-02-28T06:46:40;0.60;91.20
75113;DHT22;63692;47.338;8.520;2023-02-28T06:49:06;0.50;91.20
75113;DHT22;63692;47.338;8.520;2023-02-28T06:51:34;0.50;91.30
75113;DHT22;63692;47.338;8.520;2023-02-28T06:54:00;0.50;91.40
75113;DHT22;63692;47.338;8.520;2023-02-28T06:56:25;0.50;91.40
75113;DHT22;63692;47.338;8.520;2023-02-28T06:58:51;0.50;91.40
75113;DHT22;63692;47.338;8.520;2023-02-28T07:01:18;0.60;91.20
75113;DHT22;63692;47.338;8.520;2023-02-28T07:03:45;0.60;91.10
75113;DHT22;63692;47.338;8.520;2023-02-28T07:06:10;0.60;91.10
75113;DHT22;63692;47.338;8.520;2023-02-28T07:08:36;0.60;91.20
75113;DHT22;63692;47.338;8.520;2023-02-28T07:11:03;0.60;91.10
75113;DHT22;63692;47.338;8.520;2023-02-28T07:13:28;0.60;91.10
75113;DHT22;63692;47.338;8.520;2023-02-28T07:16:03;0.60;91.00
75113;DHT22;63692;47.338;8.520;2023-02-28T07:18:29;0.60;91.10
75113;DHT22;63692;47.338;8.520;2023-02-28T07:20:55;0.70;91.10
75113;DHT22;63692;47.338;8.520;2023-02-28T07:23:21;0.70;91.00
75113;DHT22;63692;47.338;8.520;2023-02-28T07:25:47;0.70;91.20
75113;DHT22;63692;47.338;8.520;2023-02-28T07:28:13;0.70;91.00
75113;DHT22;63692;47.338;8.520;2023-02-28T07:30:40;0.70;90.80
75113;DHT22;63692;47.338;8.520;2023-02-28T07:33:05;0.70;90.90
75113;DHT22;63692;47.338;8.520;2023-02-28T07:35:31;0.70;90.90
75113;DHT22;63692;47.338;8.520;2023-02-28T07:37:58;0.80;90.90
75113;DHT22;63692;47.338;8.520;2023-02-28T07:40:23;0.70;90.90
75113;DHT22;63692;47.338;8.520;2023-02-28T07:42:49;0.80;90.90
75113;DHT22;63692;47.338;8.520;2023-02-28T07:45:14;0.70;90.80
75113;DHT22;63692;47.338;8.520;2023-02-28T07:47:41;0.70;90.90
75113;DHT22;63692;47.338;8.520;2023-02-28T07:50:08;0.70;91.00
75113;DHT22;63692;47.338;8.520;2023-02-28T07:52:35;0.80;91.00
75113;DHT22;63692;47.338;8.520;2023-02-28T07:55:02;0.80;91.00
75113;DHT22;63692;47.338;8.520;2023-02-28T07:57:28;0.80;91.20
75113;DHT22;63692;47.338;8.520;2023-02-28T07:59:54;0.80;91.20
75113;DHT22;63692;47.338;8.520;2023-02-28T08:02:21;0.90;91.10
75113;DHT22;63692;47.338;8.520;2023-02-28T08:05:04;0.90;90.90
75113;DHT22;63692;47.338;8.520;2023-02-28T08:07:29;0.90;90.70
75113;DHT22;63692;47.338;8.520;2023-02-28T08:10:01;0.90;90.50
75113;DHT22;63692;47.338;8.520;2023-02-28T08:13:29;0.90;90.50
75113;DHT22;63692;47.338;8.520;2023-02-28T08:19:05;0.90;90.50
75113;DHT22;63692;47.338;8.520;2023-02-28T08:21:41;0.90;90.40
75113;DHT22;63692;47.338;8.520;2023-02-28T08:24:07;1.00;90.40
75113;DHT22;63692;47.338;8.520;2023-02-28T08:26:32;1.00;90.40
75113;DHT22;63692;47.338;8.520;2023-02-28T08:28:58;1.00;90.20
75113;DHT22;63692;47.338;8.520;2023-02-28T08:31:24;1.00;90.30
75113;DHT22;63692;47.338;8.520;2023-02-28T08:33:49;1.00;90.30
75113;DHT22;63692;47.338;8.520;2023-02-28T08:36:18;1.00;90.40
75113;DHT22;63692;47.338;8.520;2023-02-28T08:38:44;1.10;90.20
75113;DHT22;63692;47.338;8.520;2023-02-28T08:41:12;1.10;90.20
75113;DHT22;63692;47.338;8.520;2023-02-28T08:43:39;1.10;90.50
75113;DHT22;63692;47.338;8.520;2023-02-28T08:46:05;1.20;90.60
75113;DHT22;63692;47.338;8.520;2023-02-28T08:48:33;1.20;90.40
75113;DHT22;63692;47.338;8.520;2023-02-28T08:51:36;1.30;90.20
75113;DHT22;63692;47.338;8.520;2023-02-28T08:53:58;1.30;89.80
75113;DHT22;63692;47.338;8.520;2023-02-28T08:56:25;1.40;90.00
75113;DHT22;63692;47.338;8.520;2023-02-28T08:58:51;1.40;89.80
75113;DHT22;63692;47.338;8.520;2023-02-28T09:01:19;1.50;89.40
75113;DHT22;63692;47.338;8.520;2023-02-28T09:03:46;1.50;89.00
75113;DHT22;63692;47.338;8.520;2023-02-28T09:06:12;1.50;89.40
75113;DHT22;63692;47.338;8.520;2023-02-28T09:08:39;1.50;88.70
75113;DHT22;63692;47.338;8.520;2023-02-28T09:11:06;1.60;88.40
75113;DHT22;63692;47.338;8.520;2023-02-28T09:13:32;1.70;89.00
75113;DHT22;63692;47.338;8.520;2023-02-28T09:15:59;1.70;87.80
75113;DHT22;63692;47.338;8.520;2023-02-28T09:18:26;1.70;87.80
75113;DHT22;63692;47.338;8.520;2023-02-28T09:20:51;1.80;87.90
75113;DHT22;63692;47.338;8.520;2023-02-28T09:23:17;1.80;87.50
75113;DHT22;63692;47.338;8.520;2023-02-28T09:25:54;1.90;87.60
75113;DHT22;63692;47.338;8.520;2023-02-28T09:28:20;1.90;87.40
75113;DHT22;63692;47.338;8.520;2023-02-28T09:30:49;1.90;87.30
75113;DHT22;63692;47.338;8.520;2023-02-28T09:33:15;2.00;86.90
75113;DHT22;63692;47.338;8.520;2023-02-28T09:35:41;2.00;86.50
75113;DHT22;63692;47.338;8.520;2023-02-28T09:38:09;2.00;85.80
75113;DHT22;63692;47.338;8.520;2023-02-28T09:40:39;2.00;85.70
75113;DHT22;63692;47.338;8.520;2023-02-28T09:43:06;2.10;86.00
75113;DHT22;63692;47.338;8.520;2023-02-28T09:45:37;2.10;86.40
75113;DHT22;63692;47.338;8.520;2023-02-28T09:48:17;2.10;85.40
75113;DHT22;63692;47.338;8.520;2023-02-28T09:50:51;2.10;85.30
75113;DHT22;63692;47.338;8.520;2023-02-28T09:53:32;2.10;85.40
75113;DHT22;63692;47.338;8.520;2023-02-28T10:01:12;2.10;84.50
75113;DHT22;63692;47.338;8.520;2023-02-28T10:03:56;2.20;84.50
75113;DHT22;63692;47.338;8.520;2023-02-28T10:09:19;2.10;84.40
75113;DHT22;63692;47.338;8.520;2023-02-28T10:11:52;2.10;84.80
75113;DHT22;63692;47.338;8.520;2023-02-28T10:14:24;2.10;84.60
75113;DHT22;63692;47.338;8.520;2023-02-28T10:17:11;2.10;84.60
75113;DHT22;63692;47.338;8.520;2023-02-28T10:24:54;2.10;84.40
75113;DHT22;63692;47.338;8.520;2023-02-28T10:27:30;2.20;84.30
75113;DHT22;63692;47.338;8.520;2023-02-28T10:29:58;2.10;84.60
75113;DHT22;63692;47.338;8.520;2023-02-28T10:32:29;2.20;84.10
75113;DHT22;63692;47.338;8.520;2023-02-28T10:37:40;2.30;84.00
75113;DHT22;63692;47.338;8.520;2023-02-28T10:40:27;2.30;83.70
75113;DHT22;63692;47.338;8.520;2023-02-28T10:42:57;2.30;83.60
75113;DHT22;63692;47.338;8.520;2023-02-28T10:45:24;2.30;84.40
75113;DHT22;63692;47.338;8.520;2023-02-28T10:47:57;2.40;84.80
75113;DHT22;63692;47.338;8.520;2023-02-28T10:50:50;2.40;84.70
75113;DHT22;63692;47.338;8.520;2023-02-28T10:55:43;2.60;84.50
75113;DHT22;63692;47.338;8.520;2023-02-28T10:58:24;2.70;83.50
75113;DHT22;63692;47.338;8.520;2023-02-28T11:00:51;2.70;83.20
75113;DHT22;63692;47.338;8.520;2023-02-28T11:03:43;2.80;82.30
75113;DHT22;63692;47.338;8.520;2023-02-28T11:08:50;2.90;82.90
75113;DHT22;63692;47.338;8.520;2023-02-28T11:13:46;3.00;81.90
75113;DHT22;63692;47.338;8.520;2023-02-28T11:16:14;3.10;80.50
75113;DHT22;63692;47.338;8.520;2023-02-28T11:21:19;3.10;80.60
75113;DHT22;63692;47.338;8.520;2023-02-28T11:23:47;3.10;81.10
75113;DHT22;63692;47.338;8.520;2023-02-28T11:28:42;3.10;80.00
75113;DHT22;63692;47.338;8.520;2023-02-28T11:33:53;3.10;80.20
75113;DHT22;63692;47.338;8.520;2023-02-28T11:39:11;3.10;79.90
75113;DHT22;63692;47.338;8.520;2023-02-28T11:44:30;3.10;79.40
75113;DHT22;63692;47.338;8.520;2023-02-28T11:50:09;3.00;78.80
75113;DHT22;63692;47.338;8.520;2023-02-28T11:52:48;3.00;79.20
75113;DHT22;63692;47.338;8.520;2023-02-28T11:55:38;3.00;79.40
75113;DHT22;63692;47.338;8.520;2023-02-28T12:06:23;2.90;79.40
75113;DHT22;63692;47.338;8.520;2023-02-28T12:09:52;2.90;79.90
75113;DHT22;63692;47.338;8.520;2023-02-28T12:11:52;2.90;79.50
75113;DHT22;63692;47.338;8.520;2023-02-28T12:15:14;2.90;79.60
75113;DHT22;63692;47.338;8.520;2023-02-28T12:28:11;2.90;80.00
75113;DHT22;63692;47.338;8.520;2023-02-28T12:30:52;2.80;79.70
75113;DHT22;63692;47.338;8.520;2023-02-28T12:33:34;2.80;79.80
75113;DHT22;63692;47.338;8.520;2023-02-28T12:36:20;2.70;80.00
75113;DHT22;63692;47.338;8.520;2023-02-28T12:42:34;2.70;80.40
75113;DHT22;63692;47.338;8.520;2023-02-28T13:05:32;2.50;82.20
75113;DHT22;63692;47.338;8.520;2023-02-28T13:10:49;2.40;81.80
75113;DHT22;63692;47.338;8.520;2023-02-28T13:13:22;2.40;82.10
75113;DHT22;63692;47.338;8.520;2023-02-28T13:18:38;2.50;82.20
75113;DHT22;63692;47.338;8.520;2023-02-28T13:21:09;2.50;82.30
75113;DHT22;63692;47.338;8.520;2023-02-28T13:28:58;2.50;81.60
75113;DHT22;63692;47.338;8.520;2023-02-28T13:31:23;2.50;81.90
75113;DHT22;63692;47.338;8.520;2023-02-28T13:47:42;2.50;82.50
75113;DHT22;63692;47.338;8.520;2023-02-28T14:04:09;2.30;82.30
75113;DHT22;63692;47.338;8.520;2023-02-28T14:06:38;2.30;82.30
75113;DHT22;63692;47.338;8.520;2023-02-28T14:11:39;2.30;82.30
75113;DHT22;63692;47.338;8.520;2023-02-28T14:14:08;2.30;82.70
75113;DHT22;63692;47.338;8.520;2023-02-28T14:16:45;2.30;82.80
75113;DHT22;63692;47.338;8.520;2023-02-28T14:19:22;2.30;82.90
75113;DHT22;63692;47.338;8.520;2023-02-28T14:22:02;2.30;83.60
75113;DHT22;63692;47.338;8.520;2023-02-28T14:37:51;2.20;83.40
75113;DHT22;63692;47.338;8.520;2023-02-28T14:40:27;2.10;83.80
75113;DHT22;63692;47.338;8.520;2023-02-28T14:43:20;2.10;83.70
75113;DHT22;63692;47.338;8.520;2023-02-28T14:45:50;2.10;83.90
75113;DHT22;63692;47.338;8.520;2023-02-28T14:48:18;2.10;83.90
75113;DHT22;63692;47.338;8.520;2023-02-28T14:50:49;2.10;84.30
75113;DHT22;63692;47.338;8.520;2023-02-28T14:53:18;2.10;84.40
75113;DHT22;63692;47.338;8.520;2023-02-28T14:55:46;2.10;84.40
75113;DHT22;63692;47.338;8.520;2023-02-28T14:58:30;2.10;84.40
75113;DHT22;63692;47.338;8.520;2023-02-28T15:00:59;2.10;84.40
75113;DHT22;63692;47.338;8.520;2023-02-28T15:03:32;2.00;84.50
75113;DHT22;63692;47.338;8.520;2023-02-28T15:06:00;2.00;84.30
75113;DHT22;63692;47.338;8.520;2023-02-28T15:08:26;2.00;84.30
75113;DHT22;63692;47.338;8.520;2023-02-28T15:10:58;2.00;84.30
75113;DHT22;63692;47.338;8.520;2023-02-28T15:13:36;2.00;84.50
75113;DHT22;63692;47.338;8.520;2023-02-28T15:16:36;2.00;84.70
75113;DHT22;63692;47.338;8.520;2023-02-28T15:19:18;1.90;84.90
75113;DHT22;63692;47.338;8.520;2023-02-28T15:21:48;1.90;84.90
75113;DHT22;63692;47.338;8.520;2023-02-28T15:24:32;1.90;85.30
75113;DHT22;63692;47.338;8.520;2023-02-28T15:27:04;1.90;85.50
75113;DHT22;63692;47.338;8.520;2023-02-28T15:29:41;1.90;85.20
75113;DHT22;63692;47.338;8.520;2023-02-28T15:32:30;1.90;85.40
75113;DHT22;63692;47.338;8.520;2023-02-28T15:34:58;1.80;85.70
75113;DHT22;63692;47.338;8.520;2023-02-28T15:37:45;1.80;85.90
75113;DHT22;63692;47.338;8.520;2023-02-28T15:40:25;1.80;86.10
75113;DHT22;63692;47.338;8.520;2023-02-28T15:45:46;1.80;86.30
75113;DHT22;63692;47.338;8.520;2023-02-28T15:48:33;1.80;86.60
75113;DHT22;63692;47.338;8.520;2023-02-28T15:54:01;1.80;86.50
75113;DHT22;63692;47.338;8.520;2023-02-28T15:56:51;1.80;86.70
75113;DHT22;63692;47.338;8.520;2023-02-28T15:59:27;1.80;86.60
75113;DHT22;63692;47.338;8.520;2023-02-28T16:02:13;1.80;86.60
75113;DHT22;63692;47.338;8.520;2023-02-28T16:04:56;1.80;86.90
75113;DHT22;63692;47.338;8.520;2023-02-28T16:07:22;1.80;86.90
75113;DHT22;63692;47.338;8.520;2023-02-28T16:09:49;1.80;86.50
75113;DHT22;63692;47.338;8.520;2023-02-28T16:12:15;1.70;86.80
75113;DHT22;63692;47.338;8.520;2023-02-28T16:14:41;1.70;86.90
75113;DHT22;63692;47.338;8.520;2023-02-28T16:22:02;1.70;87.20
75113;DHT22;63692;47.338;8.520;2023-02-28T16:24:28;1.70;87.40
75113;DHT22;63692;47.338;8.520;2023-02-28T16:26:54;1.70;87.30
75113;DHT22;63692;47.338;8.520;2023-02-28T16:29:28;1.70;87.40
75113;DHT22;63692;47.338;8.520;2023-02-28T16:31:55;1.70;87.10
75113;DHT22;63692;47.338;8.520;2023-02-28T16:34:21;1.70;87.40
75113;DHT22;63692;47.338;8.520;2023-02-28T16:36:48;1.70;87.50
75113;DHT22;63692;47.338;8.520;2023-02-28T16:39:14;1.70;87.70
75113;DHT22;63692;47.338;8.520;2023-02-28T16:41:43;1.70;87.80
75113;DHT22;63692;47.338;8.520;2023-02-28T16:44:13;1.70;87.70
75113;DHT22;63692;47.338;8.520;2023-02-28T16:46:39;1.70;87.80
75113;DHT22;63692;47.338;8.520;2023-02-28T16:49:07;1.70;87.80
75113;DHT22;63692;47.338;8.520;2023-02-28T16:51:35;1.70;87.90
75113;DHT22;63692;47.338;8.520;2023-02-28T16:54:01;1.70;88.00
75113;DHT22;63692;47.338;8.520;2023-02-28T16:56:26;1.70;88.20
75113;DHT22;63692;47.338;8.520;2023-02-28T17:03:48;1.60;88.40
75113;DHT22;63692;47.338;8.520;2023-02-28T17:06:23;1.60;88.40
75113;DHT22;63692;47.338;8.520;2023-02-28T17:08:50;1.70;88.50
75113;DHT22;63692;47.338;8.520;2023-02-28T17:11:16;1.60;88.70
75113;DHT22;63692;47.338;8.520;2023-02-28T17:13:43;1.70;89.00
75113;DHT22;63692;47.338;8.520;2023-02-28T17:16:28;1.60;88.80
75113;DHT22;63692;47.338;8.520;2023-02-28T17:18:57;1.70;90.10
75113;DHT22;63692;47.338;8.520;2023-02-28T17:21:26;1.70;89.50
75113;DHT22;63692;47.338;8.520;2023-02-28T17:23:52;1.80;89.90
75113;DHT22;63692;47.338;8.520;2023-02-28T17:26:19;1.80;89.50
75113;DHT22;63692;47.338;8.520;2023-02-28T17:28:46;1.80;89.80
75113;DHT22;63692;47.338;8.520;2023-02-28T17:31:12;1.80;90.00
75113;DHT22;63692;47.338;8.520;2023-02-28T17:33:38;1.80;89.70
75113;DHT22;63692;47.338;8.520;2023-02-28T17:36:04;1.90;89.30
75113;DHT22;63692;47.338;8.520;2023-02-28T17:38:29;1.80;89.20
75113;DHT22;63692;47.338;8.520;2023-02-28T17:40:55;1.90;89.70
75113;DHT22;63692;47.338;8.520;2023-02-28T17:43:26;1.90;89.30
75113;DHT22;63692;47.338;8.520;2023-02-28T17:45:52;1.90;89.30
75113;DHT22;63692;47.338;8.520;2023-02-28T17:50:46;1.90;88.50
75113;DHT22;63692;47.338;8.520;2023-02-28T17:55:39;2.00;89.10
75113;DHT22;63692;47.338;8.520;2023-02-28T17:58:05;2.00;88.50
75113;DHT22;63692;47.338;8.520;2023-02-28T18:00:31;2.00;88.60
75113;DHT22;63692;47.338;8.520;2023-02-28T18:02:59;2.00;88.70
75113;DHT22;63692;47.338;8.520;2023-02-28T18:05:24;2.10;88.10
75113;DHT22;63692;47.338;8.520;2023-02-28T18:07:51;2.00;88.30
75113;DHT22;63692;47.338;8.520;2023-02-28T18:10:19;2.00;88.70
75113;DHT22;63692;47.338;8.520;2023-02-28T18:12:50;2.10;88.50
75113;DHT22;63692;47.338;8.520;2023-02-28T18:15:18;2.10;88.70
75113;DHT22;63692;47.338;8.520;2023-02-28T18:17:45;2.10;88.60
75113;DHT22;63692;47.338;8.520;2023-02-28T18:20:11;2.10;89.40
75113;DHT22;63692;47.338;8.520;2023-02-28T18:22:38;2.10;88.40
75113;DHT22;63692;47.338;8.520;2023-02-28T18:25:06;2.10;88.40
75113;DHT22;63692;47.338;8.520;2023-02-28T18:27:32;2.10;88.30
75113;DHT22;63692;47.338;8.520;2023-02-28T18:29:57;2.10;88.20
75113;DHT22;63692;47.338;8.520;2023-02-28T18:32:23;2.20;88.30
75113;DHT22;63692;47.338;8.520;2023-02-28T18:34:48;2.20;88.40
75113;DHT22;63692;47.338;8.520;2023-02-28T18:37:14;2.20;88.00
75113;DHT22;63692;47.338;8.520;2023-02-28T18:39:40;2.20;88.30
75113;DHT22;63692;47.338;8.520;2023-02-28T18:42:06;2.20;87.70
75113;DHT22;63692;47.338;8.520;2023-02-28T18:44:32;2.10;87.50
75113;DHT22;63692;47.338;8.520;2023-02-28T18:46:58;2.20;88.50
75113;DHT22;63692;47.338;8.520;2023-02-28T18:49:23;2.20;87.50
75113;DHT22;63692;47.338;8.520;2023-02-28T18:51:49;2.20;87.20
75113;DHT22;63692;47.338;8.520;2023-02-28T18:54:15;2.30;88.80
75113;DHT22;63692;47.338;8.520;2023-02-28T18:56:41;2.20;87.60
75113;DHT22;63692;47.338;8.520;2023-02-28T18:59:07;2.30;87.40
75113;DHT22;63692;47.338;8.520;2023-02-28T19:01:33;2.30;86.70
75113;DHT22;63692;47.338;8.520;2023-02-28T19:04:00;2.30;87.10
75113;DHT22;63692;47.338;8.520;2023-02-28T19:06:26;2.20;86.50
75113;DHT22;63692;47.338;8.520;2023-02-28T19:08:53;2.20;87.30
75113;DHT22;63692;47.338;8.520;2023-02-28T19:11:19;2.20;86.90
75113;DHT22;63692;47.338;8.520;2023-02-28T19:13:45;2.20;87.00
75113;DHT22;63692;47.338;8.520;2023-02-28T19:16:13;2.10;88.30
75113;DHT22;63692;47.338;8.520;2023-02-28T19:18:39;2.10;88.70
75113;DHT22;63692;47.338;8.520;2023-02-28T19:21:07;2.10;90.10
75113;DHT22;63692;47.338;8.520;2023-02-28T19:23:32;2.10;89.70
75113;DHT22;63692;47.338;8.520;2023-02-28T19:25:58;2.10;89.30
75113;DHT22;63692;47.338;8.520;2023-02-28T19:28:28;2.10;89.00
75113;DHT22;63692;47.338;8.520;2023-02-28T19:30:54;2.00;89.10
75113;DHT22;63692;47.338;8.520;2023-02-28T19:33:20;2.00;89.10
75113;DHT22;63692;47.338;8.520;2023-02-28T19:35:46;2.00;88.30
75113;DHT22;63692;47.338;8.520;2023-02-28T19:38:13;2.00;89.10
75113;DHT22;63692;47.338;8.520;2023-02-28T19:40:39;2.00;89.70
75113;DHT22;63692;47.338;8.520;2023-02-28T19:43:04;1.90;89.50
75113;DHT22;63692;47.338;8.520;2023-02-28T19:45:32;2.00;89.30
75113;DHT22;63692;47.338;8.520;2023-02-28T19:47:58;2.00;90.10
75113;DHT22;63692;47.338;8.520;2023-02-28T19:50:23;1.90;90.00
75113;DHT22;63692;47.338;8.520;2023-02-28T19:52:49;1.90;90.00
75113;DHT22;63692;47.338;8.520;2023-02-28T19:55:15;1.90;89.60
75113;DHT22;63692;47.338;8.520;2023-02-28T19:57:41;1.90;89.80
75113;DHT22;63692;47.338;8.520;2023-02-28T20:00:09;1.90;90.00
75113;DHT22;63692;47.338;8.520;2023-02-28T20:02:36;1.80;89.90
75113;DHT22;63692;47.338;8.520;2023-02-28T20:05:05;1.80;90.00
75113;DHT22;63692;47.338;8.520;2023-02-28T20:07:31;1.80;90.00
75113;DHT22;63692;47.338;8.520;2023-02-28T20:09:57;1.80;90.10
75113;DHT22;63692;47.338;8.520;2023-02-28T20:12:22;1.80;90.10
75113;DHT22;63692;47.338;8.520;2023-02-28T20:14:49;1.80;90.10
75113;DHT22;63692;47.338;8.520;2023-02-28T20:17:15;1.80;90.10
75113;DHT22;63692;47.338;8.520;2023-02-28T20:19:41;1.70;90.30
75113;DHT22;63692;47.338;8.520;2023-02-28T20:22:06;1.70;90.30
